createdAt,value
2019-03-16T00:02:39.463Z,99474.61
2019-03-16T00:05:26.729Z,99477.01
2019-03-16T00:08:13.904Z,99477.28
2019-03-16T00:11:01.780Z,99470.89
2019-03-16T00:13:48.899Z,99481.83
2019-03-16T00:16:35.711Z,99491.08
2019-03-16T00:19:22.622Z,99493.91
2019-03-16T00:22:11.269Z,99493.48
2019-03-16T00:28:03.858Z,99497.16
2019-03-16T00:30:51.091Z,99486.30
2019-03-16T00:33:39.740Z,99485.64
2019-03-16T00:36:26.011Z,99496.67
2019-03-16T00:39:13.054Z,99499.30
2019-03-16T00:41:59.852Z,99504.27
2019-03-16T00:44:46.669Z,99505.67
2019-03-16T00:47:33.686Z,99508.45
2019-03-16T00:50:20.467Z,99510.31
2019-03-16T00:59:19.064Z,99519.91
2019-03-16T01:02:06.624Z,99522.76
2019-03-16T01:04:53.817Z,99525.75
2019-03-16T01:07:41.356Z,99516.55
2019-03-16T01:10:28.472Z,99517.95
2019-03-16T01:13:16.291Z,99519.27
2019-03-16T01:16:04.001Z,99520.63
2019-03-16T01:18:52.261Z,99520.53
2019-03-16T01:21:39.415Z,99524.70
2019-03-16T01:27:33.636Z,99531.16
2019-03-16T01:30:21.599Z,99537.69
2019-03-16T01:33:08.596Z,99536.29
2019-03-16T01:42:09.264Z,99557.28
2019-03-16T01:44:56.607Z,99553.86
2019-03-16T01:47:44.242Z,99545.95
2019-03-16T01:50:31.587Z,99549.70
2019-03-16T01:56:39.164Z,99556.45
2019-03-16T01:59:26.575Z,99554.87
2019-03-16T02:02:13.801Z,99559.72
2019-03-16T02:05:01.129Z,99573.18
2019-03-16T02:07:49.138Z,99583.95
2019-03-16T02:13:42.114Z,99589.52
2019-03-16T02:16:29.035Z,99594.05
2019-03-16T02:19:17.172Z,99605.17
2019-03-16T02:22:04.310Z,99600.34
2019-03-16T02:24:51.607Z,99606.65
2019-03-16T02:27:38.538Z,99610.59
2019-03-16T02:30:26.762Z,99613.22
2019-03-16T02:33:14.001Z,99614.41
2019-03-16T02:36:00.930Z,99623.19
2019-03-16T02:38:51.777Z,99624.19
2019-03-16T02:41:38.385Z,99629.06
2019-03-16T02:44:25.620Z,99636.06
2019-03-16T02:47:12.656Z,99634.20
2019-03-16T02:50:00.544Z,99629.19
2019-03-16T02:52:50.083Z,99638.81
2019-03-16T02:55:35.787Z,99640.47
2019-03-16T02:58:23.435Z,99640.27
2019-03-16T03:01:10.662Z,99639.12
2019-03-16T03:07:03.876Z,99638.22
2019-03-16T03:09:50.881Z,99634.72
2019-03-16T03:12:38.688Z,99650.31
2019-03-16T03:15:25.923Z,99645.43
2019-03-16T03:18:13.372Z,99655.44
2019-03-16T03:21:00.667Z,99650.73
2019-03-16T03:23:48.593Z,99658.69
2019-03-16T03:26:35.810Z,99655.95
2019-03-16T03:32:29.338Z,99659.58
2019-03-16T03:35:16.459Z,99663.66
2019-03-16T03:38:17.722Z,99667.48
2019-03-16T03:41:04.539Z,99672.84
2019-03-16T03:46:57.423Z,99680.23
2019-03-16T03:52:51.990Z,99698.31
2019-03-16T03:55:39.032Z,99702.26
2019-03-16T04:07:47.802Z,99743.48
2019-03-16T04:10:34.593Z,99752.47
2019-03-16T04:13:28.571Z,99755.23
2019-03-16T04:16:29.420Z,99772.19
2019-03-16T04:47:18.820Z,99768.86
2019-03-16T04:59:45.318Z,99763.66
2019-03-16T05:02:32.052Z,99773.05
2019-03-16T05:05:18.761Z,99769.57
2019-03-16T05:08:06.034Z,99778.21
2019-03-16T05:10:53.267Z,99786.88
2019-03-16T05:51:20.788Z,99839.67
2019-03-16T05:54:07.922Z,99840.19
2019-03-16T05:56:54.655Z,99851.72
2019-03-16T05:59:41.951Z,99845.58
2019-03-16T06:05:54.268Z,99861.50
2019-03-16T06:08:41.451Z,99864.17
2019-03-16T06:11:28.890Z,99865.46
2019-03-16T06:23:43.162Z,99883.75
2019-03-16T06:29:50.785Z,99883.89
2019-03-16T06:35:58.458Z,99897.53
2019-03-16T06:38:48.436Z,99889.34
2019-03-16T07:16:23.748Z,99898.01
2019-03-16T07:25:23.227Z,99891.45
2019-03-16T07:28:10.474Z,99887.51
2019-03-16T07:40:18.911Z,99894.87
2019-03-16T07:43:05.731Z,99893.10
2019-03-16T07:48:58.688Z,99888.94
2019-03-16T07:58:12.284Z,99904.90
2019-03-16T08:00:59.648Z,99905.85
2019-03-16T08:13:22.034Z,99914.28
2019-03-16T08:28:48.061Z,99937.60
2019-03-16T08:31:34.919Z,99945.80
2019-03-16T08:34:22.498Z,99951.33
2019-03-16T08:40:16.276Z,99955.92
2019-03-16T08:43:03.403Z,99960.53
2019-03-16T08:55:16.518Z,99976.77
2019-03-16T08:58:06.342Z,99974.98
2019-03-16T09:00:50.583Z,99976.69
2019-03-16T09:06:43.198Z,99981.47
2019-03-16T09:09:30.357Z,99978.67
2019-03-16T09:31:08.427Z,99973.91
2019-03-16T09:33:56.513Z,99967.14
2019-03-16T09:49:07.447Z,99974.88
2019-03-16T10:07:40.660Z,99975.58
2019-03-16T10:13:40.371Z,99970.30
2019-03-16T10:16:27.681Z,99964.73
2019-03-16T10:19:14.845Z,99969.99
2019-03-16T10:22:03.277Z,99965.61
2019-03-16T10:24:57.544Z,99964.45
2019-03-16T10:27:45.575Z,99963.58
2019-03-16T10:30:32.620Z,99964.33
2019-03-16T10:33:19.493Z,99961.95
2019-03-16T10:36:06.931Z,99956.33
2019-03-16T10:45:06.864Z,99948.23
2019-03-16T10:47:53.915Z,99951.77
2019-03-16T10:50:41.893Z,99949.64
2019-03-16T10:53:29.016Z,99950.11
2019-03-16T10:56:16.107Z,99946.02
2019-03-16T10:59:02.861Z,99945.55
2019-03-16T11:01:50.594Z,99941.39
2019-03-16T11:04:38.122Z,99937.11
2019-03-16T11:10:32.515Z,99921.75
2019-03-16T11:13:26.872Z,99917.83
2019-03-16T11:19:19.941Z,99909.34
2019-03-16T11:22:07.417Z,99898.46
2019-03-16T11:28:10.192Z,99887.91
2019-03-16T11:31:05.155Z,99889.16
2019-03-16T11:34:06.422Z,99879.45
2019-03-16T11:36:54.280Z,99872.81
2019-03-16T11:39:49.455Z,99873.95
2019-03-16T11:42:38.513Z,99849.64
2019-03-16T11:45:26.734Z,99856.80
2019-03-16T11:48:14.268Z,99845.26
2019-03-16T11:51:05.255Z,99835.59
2019-03-16T11:53:53.705Z,99833.10
2019-03-16T11:59:46.661Z,99813.73
2019-03-16T12:02:34.842Z,99799.88
2019-03-16T12:05:28.963Z,99789.00
2019-03-16T12:08:22.788Z,99783.92
2019-03-16T12:11:10.908Z,99782.06
2019-03-16T12:13:59.173Z,99782.78
2019-03-16T12:16:46.798Z,99776.06
2019-03-16T12:19:48.426Z,99762.96
2019-03-16T12:22:37.006Z,99757.55
2019-03-16T12:25:38.646Z,99753.12
2019-03-16T12:28:26.764Z,99737.61
2019-03-16T12:31:14.197Z,99723.32
2019-03-16T12:34:04.987Z,99717.30
2019-03-16T12:36:53.025Z,99711.27
2019-03-16T12:39:41.145Z,99707.30
2019-03-16T12:42:29.078Z,99700.46
2019-03-16T12:45:20.771Z,99692.11
2019-03-16T12:48:06.934Z,99674.23
2019-03-16T12:50:56.188Z,99665.20
2019-03-16T12:53:57.406Z,99663.20
2019-03-16T12:56:44.549Z,99661.08
2019-03-16T12:59:31.884Z,99650.40
2019-03-16T13:02:19.907Z,99638.97
2019-03-16T13:05:07.528Z,99637.72
2019-03-16T13:07:54.966Z,99638.56
2019-03-16T13:10:42.866Z,99635.80
2019-03-16T13:13:30.268Z,99634.83
2019-03-16T13:16:31.634Z,99633.66
2019-03-16T13:19:19.389Z,99635.12
2019-03-16T13:22:07.437Z,99633.42
2019-03-16T13:24:54.253Z,99624.86
2019-03-16T13:27:48.799Z,99619.73
2019-03-16T13:30:36.478Z,99614.70
2019-03-16T13:33:25.363Z,99617.23
2019-03-16T13:36:11.808Z,99611.71
2019-03-16T13:38:59.321Z,99606.41
2019-03-16T13:41:47.663Z,99598.88
2019-03-16T13:44:35.705Z,99608.66
2019-03-16T13:47:23.152Z,99595.47
2019-03-16T13:50:13.954Z,99590.86
2019-03-16T13:53:01.964Z,99584.52
2019-03-16T13:55:48.983Z,99580.06
2019-03-16T13:58:36.733Z,99579.76
2019-03-16T14:01:24.854Z,99576.36
2019-03-16T14:04:12.788Z,99575.65
2019-03-16T14:07:00.742Z,99568.55
2019-03-16T14:09:48.165Z,99560.47
2019-03-16T14:12:36.121Z,99565.79
2019-03-16T14:15:23.219Z,99561.56
2019-03-16T14:18:11.234Z,99557.65
2019-03-16T14:21:06.187Z,99554.88
2019-03-16T14:23:54.190Z,99549.82
2019-03-16T14:26:42.479Z,99545.62
2019-03-16T14:29:28.510Z,99547.13
2019-03-16T14:32:16.160Z,99550.05
2019-03-16T14:35:06.430Z,99542.48
2019-03-16T14:37:53.465Z,99548.45
2019-03-16T14:40:40.768Z,99542.14
2019-03-16T14:43:28.748Z,99545.63
2019-03-16T14:46:16.987Z,99539.20
2019-03-16T14:49:03.652Z,99530.03
2019-03-16T14:51:50.519Z,99534.77
2019-03-16T15:32:00.223Z,99500.00
2019-03-16T15:34:48.348Z,99501.66
2019-03-16T15:37:39.656Z,99506.55
2019-03-16T15:40:27.509Z,99497.99
2019-03-16T15:43:16.728Z,99494.61
2019-03-16T15:46:03.683Z,99492.50
2019-03-16T15:48:50.989Z,99497.39
2019-03-16T15:51:38.382Z,99488.75
2019-03-16T15:54:25.938Z,99484.89
2019-03-16T15:57:18.513Z,99499.88
2019-03-16T16:00:03.371Z,99491.73
2019-03-16T16:02:50.886Z,99495.08
2019-03-16T16:05:38.260Z,99499.52
2019-03-16T16:08:25.399Z,99490.51
2019-03-16T16:14:19.191Z,99501.27
2019-03-16T16:17:06.448Z,99503.86
2019-03-16T16:23:00.581Z,99501.45
2019-03-16T16:25:48.228Z,99499.03
2019-03-16T16:35:28.427Z,99501.45
2019-03-16T16:38:22.714Z,99498.73
2019-03-16T16:41:09.853Z,99491.98
2019-03-16T16:43:56.726Z,99499.22
2019-03-16T16:49:51.388Z,99502.42
2019-03-16T17:01:58.184Z,99494.66
2019-03-16T17:04:45.964Z,99481.42
2019-03-16T17:07:33.239Z,99486.84
2019-03-16T17:10:20.660Z,99484.19
2019-03-16T17:13:14.874Z,99495.20
2019-03-16T17:16:02.210Z,99495.35
2019-03-16T17:18:49.743Z,99491.30
2019-03-16T17:21:50.963Z,99485.19
2019-03-16T17:24:45.129Z,99488.41
2019-03-16T17:43:04.644Z,99493.61
2019-03-16T17:46:06.147Z,99501.14
2019-03-16T17:58:31.164Z,99530.27
2019-03-16T18:01:18.447Z,99528.88
2019-03-16T18:10:33.409Z,99512.69
2019-03-16T18:13:20.447Z,99517.86
2019-03-16T18:16:08.434Z,99525.70
2019-03-16T18:22:15.827Z,99535.63
2019-03-16T18:37:28.494Z,99549.72
2019-03-16T18:40:15.441Z,99536.97
2019-03-16T18:49:15.970Z,99544.08
2019-03-16T18:52:02.950Z,99547.14
2019-03-16T19:07:17.655Z,99522.21
2019-03-16T19:16:31.035Z,99492.23
2019-03-16T19:53:25.963Z,99493.96
2019-03-16T19:59:34.118Z,99493.91
2019-03-16T20:02:21.262Z,99483.19
2019-03-16T20:05:08.225Z,99480.20
2019-03-16T20:14:09.047Z,99472.31
2019-03-16T20:16:56.417Z,99475.24
2019-03-16T20:41:41.694Z,99489.05
2019-03-16T20:44:29.856Z,99496.45
2019-03-16T20:56:36.537Z,99491.82
2019-03-16T20:59:23.594Z,99489.29
2019-03-16T21:20:48.727Z,99478.56
2019-03-16T21:23:35.752Z,99480.48
2019-03-16T21:26:22.606Z,99476.51
2019-03-16T21:29:09.693Z,99474.96
2019-03-16T21:35:04.079Z,99473.92
2019-03-16T21:37:51.136Z,99478.41
2019-03-16T21:40:38.074Z,99471.45
2019-03-16T21:43:25.320Z,99477.72
2019-03-16T21:46:15.808Z,99473.70
2019-03-16T21:49:02.815Z,99467.51
2019-03-16T21:51:49.948Z,99473.02
2019-03-16T21:54:37.675Z,99479.02
2019-03-16T22:00:37.474Z,99473.55
2019-03-16T22:03:24.507Z,99481.48
2019-03-16T22:06:18.616Z,99477.52
2019-03-16T22:09:06.548Z,99484.44
2019-03-16T22:11:53.752Z,99474.48
2019-03-16T22:20:53.754Z,99490.37
2019-03-16T22:42:32.593Z,99469.73
2019-03-16T22:51:32.755Z,99467.80
2019-03-16T22:54:20.920Z,99459.92
2019-03-16T22:57:08.746Z,99457.63
2019-03-16T23:15:27.211Z,99462.04
2019-03-16T23:18:13.947Z,99454.22
2019-03-16T23:21:00.756Z,99451.45
2019-03-16T23:29:59.973Z,99446.83
2019-03-16T23:32:47.089Z,99444.13
2019-03-16T23:35:40.780Z,99435.41
2019-03-16T23:44:42.012Z,99415.79
